Troy, Virginia
Current Conditions -  °F | °C
As of 4:15 AM on Monday 24 Nov 2014 (Local Time) from KGVE Reporting Station
Overcast Overcast  
Wind Chill: 59°   Ceiling: 2700
Heat Index: 59°   Visibility: 10mi
Dew Point: 57°   Wind: 5mph
Humidity: 95%   Direction: 230°SW
Pressure: 29.66"   Gusts: NA
Location:  37.99°N, 78.25°W
Report Text: KGVE 240915Z AUTO 23004KT 10SM SCT004 BKN027 OVC049 15/14 A2966 RMK AO1 T01490141
Loading
Personal Weather Stations






























Interactive Weather Map New forecast layout! Learn more

10-Day Weather Forecast

Advertisements
Track Severe Weather on mobile